BIENTÔT MET'MAP
version 2.0 !

Prévue avant fin octobre,
la nouvelle version sera
plus belle, plus complète
et hébergée sur un serveur
3 fois plus puissant...
et toujours gratuite !


Pas compatible ?
Essayez la version Mobile !

SE CONNECTER : | S'inscrire | Disclaimer | Découvrir Orbifly |
Code OACI :

TAF - LGSK Alexandros Papadiamandis - 27 May 2020 05:53 UTC - Data Source NOAA   


- Altitude de l'aérodrome : 54 ft
- Code IATA : JSI
- Pas de NOTAMs connus.


LGSK - Alexandros Papadiamandis

Dernier METAR connu : 2015/08/11 07:50 LGSK 110750Z 00000KT CAVOK 30/20 Q1011
TAF TAF LGSK
Valide du 27 à 03h jusqu'au 27 à 12h UTC


270200Z 2703/2712 35018KT 8000 SCT020 BKN035
TEMPO 2704/2710 03010G20KT
PROB40
TEMPO 2703/2712 5000 RA FEW018TCU BKN025
PROB40 2703/2712 3000 TSRA SCT015 FEW018CB BKN020

Source NOAA


MET'MAP, la Météo Aéronautique d'un coup d'oeil ! - Copyright ORBIFLY Décembre 2007

Développement & Programmation : Alexandra Zaïnal
Co-Développement : Marc-Olivier Méhu
Soutien technique & logistique : Manuel Goepfert
Conception & Financement : Baudouin d'Aumeries